Nearby METAR Reports


NZAA - Auckland Intl Ar, New Zealand
Distance from station: NW 162km
Updated: 19/06/2018 12:30
Partly cloudy
Partly cloudy
 Wind from WSW
Wind: WSW 6 km/h
Temperature: 17°C
Dew Point: 12°C
Humidity: 73%
Barometer: 1009 hPa
Clouds: Partly cloudy
Visibility: 10 km
Cloud details: Few Clouds 610 m
Partly cloudy 792 m
2018/06/19 00:30 NZAA 190030Z AUTO 25003KT 9999 FEW020/// SCT026/// 17/12 Q1009 NOSIG
NZWN - Wellington Intl, New Zealand
Distance from station: SSW 357km
Updated: 19/06/2018 12:30
Overcast
Overcast
 Wind from S
Wind: S 39 km/h
Temperature: 11°C
Dew Point: 8°C
Humidity: 82%
Barometer: 1015 hPa
Clouds: Overcast
Visibility: 10 km
Cloud details: Few Clouds 549 m
Partly cloudy 975 m
Overcast 1250 m
2018/06/19 00:30 NZWN 190030Z AUTO 17021KT 9999 FEW018/// SCT032/// OVC041/// 11/08 Q1015 NOSIG
 
NZCH - Christchurch Int, New Zealand
Distance from station: SSW 647km
Updated: 19/06/2018 12:30
Overcast
Overcast
 Wind from SSW
Wind: SSW 19 km/h
Temperature: 9°C
Wind Chill: 6°C
Dew Point: 6°C
Humidity: 82%
Barometer: 1018 hPa
Clouds: Overcast
Visibility: 10 km
Cloud details: Overcast 792 m
2018/06/19 00:30 NZCH 190030Z AUTO 20010KT 9999 OVC026/// 09/06 Q1018 NOSIG
YSNF - Norfolk Island A, Australia
Distance from station: NW 1258km
Updated: 19/06/2018 12:30
Clear
Clear
 Wind from WSW
Wind: WSW 13 km/h
Temperature: 19°C
Dew Point: 12°C
Humidity: 64%
Barometer: 1012 hPa
Summary: Clear
Visibility: greater than 10 km
2018/06/19 00:30 YSNF 190030Z 25007KT CAVOK 19/12 Q1012